createdAt,value
2023-01-09T00:04:44.109Z,6.95
2023-01-09T00:09:46.975Z,6.99
2023-01-09T00:14:49.791Z,6.95
2023-01-09T00:19:53.997Z,6.80
2023-01-09T00:24:56.710Z,6.80
2023-01-09T00:29:59.665Z,6.83
2023-01-09T00:35:04.118Z,6.84
2023-01-09T00:40:07.476Z,6.86
2023-01-09T00:45:12.802Z,6.80
2023-01-09T00:50:24.793Z,6.76
2023-01-09T00:55:27.594Z,6.71
2023-01-09T01:00:30.503Z,6.75
2023-01-09T01:05:48.475Z,6.78
2023-01-09T01:10:51.345Z,6.82
2023-01-09T01:15:54.134Z,6.79
2023-01-09T01:20:58.259Z,6.75
2023-01-09T01:26:05.730Z,6.73
2023-01-09T01:31:08.562Z,6.80
2023-01-09T01:36:12.845Z,6.89
2023-01-09T01:41:29.226Z,6.97
2023-01-09T01:46:34.040Z,7.05
2023-01-09T01:51:41.495Z,7.09
2023-01-09T01:56:46.118Z,7.12
2023-01-09T02:01:51.796Z,7.11
2023-01-09T02:06:57.450Z,7.12
2023-01-09T02:12:01.253Z,7.17
2023-01-09T02:17:10.838Z,7.21
2023-01-09T02:22:21.267Z,7.26
2023-01-09T02:27:52.248Z,7.23
2023-01-09T02:33:13.662Z,7.26
2023-01-09T02:38:23.460Z,7.22
2023-01-09T02:43:26.621Z,7.28
2023-01-09T02:48:31.785Z,7.37
2023-01-09T02:53:48.099Z,7.42
2023-01-09T02:59:17.528Z,7.40
2023-01-09T03:04:28.575Z,7.46
2023-01-09T03:09:37.007Z,7.45
2023-01-09T03:14:44.381Z,7.46
2023-01-09T03:19:49.765Z,7.52
2023-01-09T03:24:52.480Z,7.52
2023-01-09T03:29:56.580Z,7.54
2023-01-09T03:35:01.838Z,7.58
2023-01-09T03:40:05.246Z,7.57
2023-01-09T03:45:08.451Z,7.58
2023-01-09T03:50:13.021Z,7.60
2023-01-09T03:55:15.896Z,7.59
2023-01-09T04:00:19.584Z,7.59
2023-01-09T04:05:23.900Z,7.63
2023-01-09T04:10:26.683Z,7.61
2023-01-09T04:15:29.441Z,7.60
2023-01-09T04:20:33.641Z,7.56
2023-01-09T04:25:36.382Z,7.50
2023-01-09T04:30:39.170Z,7.54
2023-01-09T04:35:43.272Z,7.55
2023-01-09T04:40:47.917Z,7.54
2023-01-09T04:45:50.721Z,7.54
2023-01-09T04:50:54.903Z,7.50
2023-01-09T04:55:57.638Z,7.49
2023-01-09T05:01:00.443Z,7.47
2023-01-09T05:06:05.018Z,7.44
2023-01-09T05:11:07.884Z,7.51
2023-01-09T05:16:10.869Z,7.51
2023-01-09T05:21:15.074Z,7.49
2023-01-09T05:26:17.776Z,7.48
2023-01-09T05:31:21.453Z,7.48
2023-01-09T05:36:25.697Z,7.51
2023-01-09T05:41:28.464Z,7.48
2023-01-09T05:46:31.131Z,7.54
2023-01-09T05:51:35.214Z,7.55
2023-01-09T05:56:37.913Z,7.61
2023-01-09T06:01:40.719Z,7.68
2023-01-09T06:06:44.846Z,7.72
2023-01-09T06:11:47.839Z,7.74
2023-01-09T06:16:51.221Z,7.76
2023-01-09T06:21:55.420Z,7.77
2023-01-09T06:26:58.213Z,7.78
2023-01-09T06:32:00.924Z,7.77
2023-01-09T06:37:05.117Z,7.74
2023-01-09T06:42:08.245Z,7.77
2023-01-09T06:47:10.998Z,7.79
2023-01-09T06:52:15.058Z,7.80
2023-01-09T06:57:17.789Z,7.79
2023-01-09T07:02:22.343Z,7.80
2023-01-09T07:07:26.561Z,7.82
2023-01-09T07:12:29.476Z,7.86
2023-01-09T07:17:32.741Z,7.90
2023-01-09T07:22:36.981Z,7.92
2023-01-09T07:27:39.974Z,7.94
2023-01-09T07:32:42.929Z,7.95
2023-01-09T07:37:47.691Z,7.94
2023-01-09T07:42:50.497Z,7.95
2023-01-09T07:47:53.234Z,7.97
2023-01-09T07:52:57.384Z,8.00
2023-01-09T07:58:00.117Z,8.01
2023-01-09T08:03:02.951Z,8.04
2023-01-09T08:08:07.497Z,8.08
2023-01-09T08:13:10.339Z,8.11
2023-01-09T08:18:13.120Z,8.16
2023-01-09T08:23:17.265Z,8.17
2023-01-09T08:28:20.074Z,8.15
2023-01-09T08:33:22.893Z,8.14
2023-01-09T08:38:27.003Z,8.27
2023-01-09T08:43:47.127Z,8.26
2023-01-09T08:48:49.874Z,8.25
2023-01-09T08:53:53.961Z,8.26
2023-01-09T08:58:56.704Z,8.26
2023-01-09T09:03:59.425Z,8.31
2023-01-09T09:09:03.868Z,8.35
2023-01-09T09:14:26.860Z,8.29
2023-01-09T09:19:29.580Z,8.25
2023-01-09T09:24:33.636Z,8.26
2023-01-09T09:29:36.418Z,8.31
2023-01-09T09:34:39.216Z,8.29
2023-01-09T09:39:43.418Z,8.32
2023-01-09T09:44:59.130Z,8.33
2023-01-09T09:50:07.723Z,8.24
2023-01-09T09:55:17.953Z,8.17
2023-01-09T10:00:22.109Z,8.18
2023-01-09T10:05:28.718Z,8.35
2023-01-09T10:10:36.306Z,8.51
2023-01-09T10:15:51.669Z,8.61
2023-01-09T10:20:58.546Z,8.82
2023-01-09T10:26:07.981Z,9.04
2023-01-09T10:31:16.293Z,9.16
2023-01-09T10:36:38.096Z,9.18
2023-01-09T10:41:46.213Z,9.03
2023-01-09T10:46:53.130Z,8.94
2023-01-09T10:52:05.459Z,8.96
2023-01-09T10:57:16.144Z,9.30
2023-01-09T11:02:28.719Z,9.47
2023-01-09T11:07:34.854Z,9.64
2023-01-09T11:12:40.231Z,9.85
2023-01-09T11:17:43.471Z,10.00
2023-01-09T11:22:47.670Z,9.97
2023-01-09T11:28:05.125Z,10.01
2023-01-09T11:33:15.436Z,10.06
2023-01-09T11:38:18.611Z,10.02
2023-01-09T11:43:30.746Z,11.35
2023-01-09T11:48:39.355Z,10.17
2023-01-09T11:53:47.137Z,10.33
2023-01-09T11:58:51.194Z,11.62
2023-01-09T12:04:12.998Z,11.12
2023-01-09T12:09:20.279Z,10.69
2023-01-09T12:14:32.269Z,9.63
2023-01-09T12:19:54.495Z,9.29
2023-01-09T12:25:17.697Z,9.21
2023-01-09T12:30:28.968Z,8.99
2023-01-09T12:35:36.644Z,9.23
2023-01-09T12:40:49.731Z,8.80
2023-01-09T12:46:03.766Z,8.66
2023-01-09T12:51:12.669Z,8.62
2023-01-09T12:56:18.138Z,8.60
2023-01-09T13:01:25.403Z,8.75
2023-01-09T13:06:30.013Z,8.72
2023-01-09T13:11:35.713Z,8.68
2023-01-09T13:16:43.414Z,9.15
2023-01-09T13:21:46.523Z,9.57
2023-01-09T13:26:51.937Z,9.16
2023-01-09T13:32:11.243Z,9.07
2023-01-09T13:37:22.131Z,8.89
2023-01-09T13:42:39.700Z,9.08
2023-01-09T13:47:44.248Z,9.12
2023-01-09T13:52:46.949Z,8.84
2023-01-09T13:58:25.946Z,8.82
2023-01-09T14:03:33.486Z,8.93
2023-01-09T14:08:36.267Z,9.00
2023-01-09T14:13:44.905Z,8.99
2023-01-09T14:18:51.188Z,8.78
2023-01-09T14:24:03.444Z,8.59
2023-01-09T14:29:37.904Z,8.41
2023-01-09T14:34:43.538Z,8.30
2023-01-09T14:39:47.484Z,8.18
2023-01-09T14:44:52.154Z,8.13
2023-01-09T14:49:59.696Z,8.12
2023-01-09T14:55:04.054Z,8.19
2023-01-09T15:00:16.470Z,8.20
2023-01-09T15:05:23.531Z,8.17
2023-01-09T15:10:29.982Z,8.13
2023-01-09T15:15:32.783Z,8.11
2023-01-09T15:20:37.119Z,8.03
2023-01-09T15:25:40.933Z,7.97
2023-01-09T15:30:43.936Z,7.92
2023-01-09T15:35:50.092Z,7.71
2023-01-09T15:40:54.947Z,7.52
2023-01-09T15:45:58.328Z,7.50
2023-01-09T15:51:06.708Z,7.52
2023-01-09T15:56:20.577Z,7.46
2023-01-09T16:01:29.751Z,7.44
2023-01-09T16:06:35.566Z,7.50
2023-01-09T16:11:39.536Z,7.58
2023-01-09T16:16:42.696Z,7.66
2023-01-09T16:21:57.802Z,7.70
2023-01-09T16:27:23.948Z,7.69
2023-01-09T16:32:29.559Z,7.77
2023-01-09T16:37:34.064Z,7.74
2023-01-09T16:42:54.754Z,7.77
2023-01-09T16:47:58.226Z,7.76
2023-01-09T16:53:07.525Z,7.76
2023-01-09T16:58:14.246Z,7.77
2023-01-09T17:03:19.188Z,7.82
2023-01-09T17:08:25.283Z,7.84
2023-01-09T17:13:28.162Z,7.83
2023-01-09T17:18:30.947Z,7.84
2023-01-09T17:23:35.073Z,7.88
2023-01-09T17:28:38.553Z,7.87
2023-01-09T17:33:42.056Z,7.81
2023-01-09T17:38:47.165Z,7.80
2023-01-09T17:43:50.110Z,7.73
2023-01-09T17:48:54.170Z,7.68
2023-01-09T17:53:58.576Z,7.63
2023-01-09T17:59:02.569Z,7.60
2023-01-09T18:04:05.467Z,7.59
2023-01-09T18:09:10.914Z,7.48
2023-01-09T18:14:14.080Z,7.52
2023-01-09T18:19:16.983Z,7.49
2023-01-09T18:24:21.149Z,7.53
2023-01-09T18:29:24.231Z,7.61
2023-01-09T18:34:27.002Z,7.63
2023-01-09T18:39:31.407Z,7.63
2023-01-09T18:44:34.123Z,7.58
2023-01-09T18:49:36.924Z,7.47
2023-01-09T18:54:42.646Z,7.42
2023-01-09T18:59:45.410Z,7.43
2023-01-09T19:04:48.257Z,7.44
2023-01-09T19:09:52.527Z,7.44
2023-01-09T19:14:55.698Z,7.40
2023-01-09T19:19:58.441Z,7.38
2023-01-09T19:25:02.513Z,7.35
2023-01-09T19:30:06.380Z,7.33
2023-01-09T19:35:09.915Z,7.27
2023-01-09T19:40:14.702Z,7.18
2023-01-09T19:45:17.492Z,7.13
2023-01-09T19:50:21.870Z,7.07
2023-01-09T19:55:26.005Z,6.97
2023-01-09T20:00:28.725Z,6.91
2023-01-09T20:05:31.527Z,6.92
2023-01-09T20:10:35.782Z,6.91
2023-01-09T20:15:38.776Z,6.87
2023-01-09T20:20:44.507Z,6.84
2023-01-09T20:25:48.938Z,6.76
2023-01-09T20:30:53.546Z,6.68
2023-01-09T20:35:56.347Z,6.63
2023-01-09T20:41:08.290Z,6.61
2023-01-09T20:46:11.101Z,6.59
2023-01-09T20:51:14.632Z,6.54
2023-01-09T20:56:18.919Z,6.49
2023-01-09T21:01:22.931Z,6.46
2023-01-09T21:06:26.633Z,6.43
2023-01-09T21:11:30.995Z,6.43
2023-01-09T21:16:33.833Z,6.42
2023-01-09T21:21:36.607Z,6.38
2023-01-09T21:26:40.921Z,6.41
2023-01-09T21:31:44.171Z,6.41
2023-01-09T21:36:48.749Z,6.38
2023-01-09T21:42:10.671Z,6.28
2023-01-09T21:47:13.574Z,6.18
2023-01-09T21:52:18.237Z,6.25
2023-01-09T21:57:22.556Z,6.28
2023-01-09T22:02:25.563Z,6.26
2023-01-09T22:07:28.440Z,6.33
2023-01-09T22:12:32.565Z,6.40
2023-01-09T22:17:35.328Z,6.34
2023-01-09T22:22:38.045Z,6.17
2023-01-09T22:27:42.173Z,6.20
2023-01-09T22:32:45.077Z,6.29
2023-01-09T22:37:47.998Z,6.31
2023-01-09T22:42:54.218Z,6.33
2023-01-09T22:47:56.986Z,6.27
2023-01-09T22:52:59.747Z,6.14
2023-01-09T22:58:03.818Z,6.12
2023-01-09T23:03:06.526Z,6.12
2023-01-09T23:08:09.289Z,6.20
2023-01-09T23:13:13.457Z,6.15
2023-01-09T23:18:16.277Z,6.23
2023-01-09T23:23:20.779Z,6.26
2023-01-09T23:28:25.655Z,6.31
2023-01-09T23:33:28.442Z,6.18
2023-01-09T23:38:31.419Z,6.01
2023-01-09T23:43:35.927Z,5.98
2023-01-09T23:48:38.845Z,5.99
2023-01-09T23:53:41.641Z,5.85
2023-01-09T23:58:45.738Z,5.77
